createdAt,value
2023-02-15T00:01:39.343Z,119.70
2023-02-15T00:04:07.928Z,101.15
2023-02-15T00:06:36.183Z,104.43
2023-02-15T00:09:05.002Z,96.90
2023-02-15T00:11:41.948Z,108.07
2023-02-15T00:14:12.745Z,94.57
2023-02-15T00:16:41.315Z,87.07
2023-02-15T00:19:09.306Z,86.13
2023-02-15T00:21:39.054Z,98.65
2023-02-15T00:24:08.519Z,102.72
2023-02-15T00:26:36.733Z,93.93
2023-02-15T00:29:04.781Z,125.13
2023-02-15T00:31:35.197Z,82.18
2023-02-15T00:34:04.574Z,92.63
2023-02-15T00:36:32.728Z,78.25
2023-02-15T00:39:00.356Z,57.55
2023-02-15T00:41:28.017Z,90.05
2023-02-15T00:43:55.721Z,83.60
2023-02-15T00:46:24.232Z,73.18
2023-02-15T00:48:53.322Z,108.63
2023-02-15T00:51:21.366Z,108.75
2023-02-15T00:53:49.636Z,85.65
2023-02-15T00:56:17.768Z,99.20
2023-02-15T00:58:45.896Z,78.05
2023-02-15T01:01:15.354Z,94.50
2023-02-15T01:03:43.484Z,84.45
2023-02-15T01:06:12.692Z,90.65
2023-02-15T01:08:40.594Z,118.63
2023-02-15T01:11:11.468Z,112.05
2023-02-15T01:13:39.819Z,96.78
2023-02-15T01:16:07.762Z,105.30
2023-02-15T01:18:36.133Z,82.55
2023-02-15T01:21:12.876Z,97.20
2023-02-15T01:23:40.531Z,144.85
2023-02-15T01:26:08.906Z,75.45
2023-02-15T01:28:37.205Z,86.55
2023-02-15T01:31:09.833Z,69.72
2023-02-15T01:33:39.518Z,125.10
2023-02-15T01:36:07.692Z,88.93
2023-02-15T01:38:37.681Z,72.88
2023-02-15T01:41:24.546Z,86.95
2023-02-15T01:43:55.024Z,112.78
2023-02-15T01:46:26.754Z,98.45
2023-02-15T01:48:56.410Z,88.30
2023-02-15T01:51:28.403Z,94.70
2023-02-15T01:54:04.459Z,89.60
2023-02-15T01:56:36.059Z,110.28
2023-02-15T01:59:07.989Z,100.30
2023-02-15T02:01:35.748Z,96.65
2023-02-15T02:04:08.020Z,90.22
2023-02-15T02:06:38.817Z,102.35
2023-02-15T02:09:09.338Z,92.10
2023-02-15T02:11:37.648Z,96.13
2023-02-15T02:14:05.686Z,73.38
2023-02-15T02:16:41.672Z,84.40
2023-02-15T02:19:50.501Z,96.82
2023-02-15T02:22:52.246Z,144.98
2023-02-15T02:25:47.616Z,102.05
2023-02-15T02:28:31.118Z,129.73
2023-02-15T02:31:16.487Z,122.25
2023-02-15T02:34:02.280Z,104.72
2023-02-15T02:36:34.403Z,99.32
2023-02-15T02:39:13.663Z,134.25
2023-02-15T02:41:49.326Z,89.28
2023-02-15T02:44:21.058Z,115.80
2023-02-15T02:46:53.238Z,102.40
2023-02-15T02:49:32.162Z,104.82
2023-02-15T02:52:01.161Z,101.18
2023-02-15T02:54:29.752Z,101.28
2023-02-15T02:56:58.696Z,112.40
2023-02-15T02:59:29.790Z,110.25
2023-02-15T03:02:01.862Z,105.43
2023-02-15T03:04:33.549Z,97.47
2023-02-15T03:07:03.406Z,101.22
2023-02-15T03:09:35.538Z,72.50
2023-02-15T03:12:04.796Z,84.47
2023-02-15T03:14:35.627Z,84.22
2023-02-15T03:17:04.650Z,129.02
2023-02-15T03:19:37.222Z,63.88
2023-02-15T03:22:10.083Z,114.40
2023-02-15T03:24:39.887Z,118.57
2023-02-15T03:27:10.288Z,70.55
2023-02-15T03:29:39.094Z,112.47
2023-02-15T03:32:09.612Z,103.43
2023-02-15T03:34:39.061Z,131.65
2023-02-15T03:37:13.148Z,105.80
2023-02-15T03:39:44.736Z,124.95
2023-02-15T03:42:15.365Z,67.53
2023-02-15T03:44:50.118Z,88.18
2023-02-15T03:47:19.821Z,111.93
2023-02-15T03:49:52.690Z,69.55
2023-02-15T03:52:21.956Z,74.30
2023-02-15T03:54:50.766Z,77.30
2023-02-15T03:57:38.645Z,105.32
2023-02-15T04:00:29.235Z,101.78
2023-02-15T04:03:19.090Z,71.60
2023-02-15T04:05:48.417Z,93.15
2023-02-15T04:08:16.118Z,74.72
2023-02-15T04:10:56.208Z,69.78
2023-02-15T04:13:31.653Z,74.32
2023-02-15T04:16:05.546Z,69.95
2023-02-15T04:18:54.948Z,76.50
2023-02-15T04:21:43.293Z,109.30
2023-02-15T04:24:29.596Z,85.78
2023-02-15T04:26:57.646Z,59.75
2023-02-15T04:29:27.229Z,102.50
2023-02-15T04:31:56.651Z,91.68
2023-02-15T04:34:24.595Z,104.18
2023-02-15T04:36:53.688Z,123.20
2023-02-15T04:39:22.094Z,125.25
2023-02-15T04:41:49.746Z,119.93
2023-02-15T04:44:17.627Z,86.55
2023-02-15T04:46:45.250Z,73.95
2023-02-15T04:49:13.192Z,67.60
2023-02-15T04:51:41.050Z,140.00
2023-02-15T04:54:10.203Z,178.43
2023-02-15T04:56:39.811Z,81.25
2023-02-15T04:59:07.574Z,82.75
2023-02-15T05:01:35.259Z,100.03
2023-02-15T05:04:03.532Z,130.40
2023-02-15T05:06:31.662Z,107.97
2023-02-15T05:09:00.296Z,77.50
2023-02-15T05:11:29.414Z,81.50
2023-02-15T05:13:57.388Z,84.95
2023-02-15T05:16:25.183Z,102.88
2023-02-15T05:18:53.048Z,138.13
2023-02-15T05:21:21.277Z,117.25
2023-02-15T05:23:48.926Z,103.93
2023-02-15T05:26:37.234Z,142.38
2023-02-15T05:29:06.736Z,75.45
2023-02-15T05:31:34.970Z,140.52
2023-02-15T05:34:02.945Z,110.60
2023-02-15T05:36:31.037Z,109.53
2023-02-15T05:38:58.711Z,98.53
2023-02-15T05:41:26.555Z,93.57
2023-02-15T05:43:57.023Z,114.85
2023-02-15T05:46:26.340Z,99.05
2023-02-15T05:48:54.287Z,84.28
2023-02-15T05:51:22.024Z,98.75
2023-02-15T05:53:49.910Z,112.25
2023-02-15T05:56:17.704Z,66.75
2023-02-15T05:58:45.505Z,83.43
2023-02-15T06:01:14.823Z,99.05
2023-02-15T06:03:43.949Z,109.35
2023-02-15T06:06:11.766Z,111.80
2023-02-15T06:08:40.127Z,131.07
2023-02-15T06:11:07.894Z,82.45
2023-02-15T06:13:38.587Z,141.07
2023-02-15T06:16:07.203Z,65.13
2023-02-15T06:18:35.192Z,105.70
2023-02-15T06:21:04.489Z,185.23
2023-02-15T06:23:32.807Z,161.85
2023-02-15T06:26:01.145Z,163.75
2023-02-15T06:28:29.006Z,132.02
2023-02-15T06:30:57.107Z,69.53
2023-02-15T06:33:25.474Z,65.90
2023-02-15T06:35:56.110Z,61.78
2023-02-15T06:38:25.245Z,65.65
2023-02-15T06:40:52.979Z,74.97
2023-02-15T06:43:24.358Z,67.40
2023-02-15T06:45:52.018Z,84.68
2023-02-15T07:04:41.363Z,120.78
2023-02-15T07:07:11.263Z,104.20
2023-02-15T07:09:38.971Z,138.55
2023-02-15T07:12:30.002Z,127.57
2023-02-15T07:14:59.114Z,121.55
2023-02-15T07:17:36.838Z,143.70
2023-02-15T07:20:09.612Z,82.68
2023-02-15T07:22:38.263Z,123.72
2023-02-15T07:25:07.128Z,104.82
2023-02-15T07:27:34.851Z,105.18
2023-02-15T07:30:02.910Z,175.88
2023-02-15T07:32:32.331Z,115.50
2023-02-15T07:35:00.563Z,150.13
2023-02-15T07:37:30.093Z,99.85
2023-02-15T07:39:57.783Z,74.57
2023-02-15T07:42:25.494Z,142.80
2023-02-15T07:44:53.563Z,97.10
2023-02-15T08:26:42.174Z,132.77
2023-02-15T08:29:11.151Z,90.03
2023-02-15T08:31:39.432Z,117.22
2023-02-15T08:34:07.427Z,113.78
2023-02-15T08:36:35.425Z,93.00
2023-02-15T08:39:05.238Z,97.05
2023-02-15T08:41:34.940Z,111.10
2023-02-15T08:44:06.559Z,93.03
2023-02-15T08:46:36.041Z,119.32
2023-02-15T08:49:04.067Z,82.35
2023-02-15T08:51:33.256Z,95.05
2023-02-15T08:54:03.184Z,74.18
2023-02-15T08:56:34.258Z,93.78
2023-02-15T08:59:02.228Z,76.47
2023-02-15T09:01:33.125Z,89.03
2023-02-15T09:04:03.041Z,114.00
2023-02-15T09:06:30.989Z,77.80
2023-02-15T09:08:59.421Z,85.55
2023-02-15T09:11:28.889Z,119.38
2023-02-15T09:13:57.999Z,89.00
2023-02-15T09:16:27.765Z,77.57
2023-02-15T09:18:58.446Z,73.60
2023-02-15T09:21:27.784Z,81.80
2023-02-15T09:23:58.163Z,69.60
2023-02-15T09:26:26.445Z,81.63
2023-02-15T09:29:15.081Z,119.07
2023-02-15T09:35:16.556Z,82.13
2023-02-15T09:37:44.317Z,82.65
2023-02-15T09:40:14.177Z,117.28
2023-02-15T09:42:56.339Z,131.93
2023-02-15T09:45:29.006Z,125.30
2023-02-15T09:48:31.857Z,105.82
2023-02-15T09:51:14.573Z,71.20
2023-02-15T09:53:54.507Z,94.65
2023-02-15T09:56:28.657Z,146.13
2023-02-15T09:59:01.504Z,117.95
2023-02-15T10:01:35.801Z,82.18
2023-02-15T10:04:19.066Z,110.00
2023-02-15T10:20:20.811Z,57.63
2023-02-15T10:23:13.014Z,128.98
2023-02-15T10:25:44.556Z,68.32
2023-02-15T10:28:18.119Z,78.07
2023-02-15T10:30:49.244Z,61.40
2023-02-15T10:33:28.138Z,97.03
2023-02-15T10:36:05.230Z,71.38
2023-02-15T10:38:38.842Z,109.28
2023-02-15T10:41:17.803Z,61.30
2023-02-15T10:44:00.914Z,78.20
2023-02-15T10:46:54.534Z,68.78
2023-02-15T10:49:32.398Z,69.57
2023-02-15T10:52:15.424Z,75.38
2023-02-15T10:54:48.045Z,66.40
2023-02-15T10:57:21.742Z,67.45
2023-02-15T11:00:00.482Z,68.57
2023-02-15T11:02:39.450Z,71.25
2023-02-15T11:05:32.793Z,90.22
2023-02-15T11:08:04.848Z,71.82
2023-02-15T11:10:35.121Z,76.80
2023-02-15T11:13:07.033Z,70.22
2023-02-15T11:15:38.848Z,77.72
2023-02-15T11:18:11.898Z,82.72
2023-02-15T11:20:45.027Z,75.00
2023-02-15T11:23:17.317Z,77.78
2023-02-15T11:25:48.096Z,80.63
2023-02-15T11:28:21.715Z,81.55
2023-02-15T11:30:53.068Z,80.72
2023-02-15T11:33:24.435Z,70.45
2023-02-15T11:35:55.961Z,68.47
2023-02-15T11:38:27.149Z,71.28
2023-02-15T11:40:58.167Z,68.20
2023-02-15T11:43:30.818Z,77.43
2023-02-15T11:45:58.636Z,91.38
2023-02-15T11:48:26.378Z,71.45
2023-02-15T11:50:54.091Z,75.05
2023-02-15T11:53:25.986Z,81.32
2023-02-15T11:55:55.568Z,78.03
2023-02-15T11:58:31.179Z,77.55
2023-02-15T12:01:03.829Z,97.03
2023-02-15T12:03:43.827Z,85.45
2023-02-15T12:06:22.410Z,83.25
2023-02-15T12:08:54.626Z,80.10
2023-02-15T12:11:28.179Z,86.05
2023-02-15T12:13:58.143Z,86.10
2023-02-15T12:16:26.212Z,85.10
2023-02-15T12:18:55.975Z,89.18
2023-02-15T12:21:28.055Z,84.72
2023-02-15T12:23:58.579Z,82.22
2023-02-15T12:26:29.532Z,84.57
2023-02-15T12:29:02.416Z,77.47
2023-02-15T12:31:34.401Z,91.13
2023-02-15T12:34:05.006Z,88.15
2023-02-15T12:36:36.149Z,89.43
2023-02-15T12:39:06.259Z,92.55
2023-02-15T12:41:35.511Z,91.63
2023-02-15T12:44:14.370Z,92.32
2023-02-15T12:46:42.700Z,101.88
2023-02-15T13:03:51.403Z,84.13
2023-02-15T13:06:19.879Z,104.68
2023-02-15T13:08:49.810Z,93.75
2023-02-15T13:11:22.733Z,94.43
2023-02-15T13:13:53.927Z,96.70
2023-02-15T13:16:25.899Z,94.60
2023-02-15T13:18:54.998Z,93.97
2023-02-15T13:21:27.897Z,94.32
2023-02-15T13:24:01.322Z,92.40
2023-02-15T13:26:33.044Z,102.32
2023-02-15T13:29:03.335Z,93.07
2023-02-15T13:31:33.615Z,96.05
2023-02-15T13:34:05.444Z,101.00
2023-02-15T13:36:42.258Z,101.05
2023-02-15T13:39:18.181Z,105.57
2023-02-15T13:41:53.314Z,103.95
2023-02-15T13:44:29.212Z,97.40
2023-02-15T13:47:08.189Z,94.18
2023-02-15T13:49:47.382Z,97.93
2023-02-15T13:52:21.382Z,102.00
2023-02-15T13:55:17.107Z,106.53
2023-02-15T13:58:00.500Z,83.28
2023-02-15T14:00:33.649Z,96.15
2023-02-15T14:03:24.142Z,109.13
2023-02-15T14:06:01.981Z,101.88
2023-02-15T14:08:43.541Z,105.85
2023-02-15T14:11:17.626Z,97.38
2023-02-15T14:14:02.655Z,91.05
2023-02-15T14:16:38.757Z,98.43
2023-02-15T14:19:16.036Z,103.40
2023-02-15T14:21:49.482Z,99.25
2023-02-15T14:24:27.316Z,102.93
2023-02-15T14:26:59.183Z,99.70
2023-02-15T14:29:34.323Z,104.65
2023-02-15T14:32:06.445Z,100.15
2023-02-15T14:34:40.152Z,94.32
2023-02-15T14:37:12.346Z,90.68
2023-02-15T14:40:04.766Z,100.90
2023-02-15T14:42:36.927Z,92.15
2023-02-15T14:45:08.789Z,97.97
2023-02-15T14:47:39.107Z,92.93
2023-02-15T14:50:44.971Z,94.13
2023-02-15T14:53:39.433Z,94.85
2023-02-15T14:56:20.359Z,88.00
2023-02-15T14:59:02.910Z,94.10
2023-02-15T15:01:32.071Z,91.45
2023-02-15T15:04:02.180Z,86.75
2023-02-15T15:06:32.074Z,94.22
2023-02-15T15:09:08.086Z,93.10
2023-02-15T15:11:44.243Z,91.75
2023-02-15T15:14:28.367Z,98.47
2023-02-15T15:16:56.083Z,96.57
2023-02-15T15:20:07.622Z,106.63
2023-02-15T15:22:36.605Z,106.13
2023-02-15T15:25:09.870Z,110.32
2023-02-15T15:27:57.009Z,121.13
2023-02-15T15:31:01.671Z,116.07
2023-02-15T15:34:01.677Z,108.53
2023-02-15T15:37:20.369Z,114.78
2023-02-15T15:40:39.873Z,101.30
2023-02-15T15:43:29.010Z,98.53
2023-02-15T15:46:07.985Z,102.05
2023-02-15T15:48:37.472Z,99.70
2023-02-15T15:51:07.956Z,108.00
2023-02-15T15:53:43.142Z,92.93
2023-02-15T15:56:14.674Z,106.70
2023-02-15T15:58:47.728Z,91.47
2023-02-15T16:01:15.950Z,98.97
2023-02-15T16:08:34.596Z,96.30
2023-02-15T16:11:04.670Z,92.38
2023-02-15T16:13:40.567Z,98.70
2023-02-15T16:16:09.354Z,103.25
2023-02-15T16:18:39.942Z,109.60
2023-02-15T16:21:08.658Z,106.40
2023-02-15T16:24:02.121Z,107.10
2023-02-15T16:26:51.339Z,118.93
2023-02-15T16:29:28.043Z,113.22
2023-02-15T16:32:02.572Z,123.20
2023-02-15T16:34:45.775Z,150.98
2023-02-15T16:37:15.536Z,144.93
2023-02-15T16:39:45.983Z,131.20
2023-02-15T16:42:15.935Z,156.60
2023-02-15T16:44:44.263Z,111.20
2023-02-15T16:47:18.052Z,112.90
2023-02-15T16:49:48.501Z,105.78
2023-02-15T16:52:20.616Z,98.50
2023-02-15T16:54:54.156Z,95.30
2023-02-15T16:57:23.259Z,95.95
2023-02-15T16:59:52.836Z,100.13
2023-02-15T17:02:43.025Z,96.28
2023-02-15T17:05:19.864Z,101.30
2023-02-15T17:07:54.078Z,98.28
2023-02-15T17:10:32.185Z,97.03
2023-02-15T17:13:05.226Z,95.03
2023-02-15T17:15:35.403Z,89.20
2023-02-15T17:18:06.096Z,95.90
2023-02-15T17:20:37.093Z,91.97
2023-02-15T17:23:05.499Z,92.32
2023-02-15T17:25:39.354Z,87.05
2023-02-15T17:28:08.341Z,88.75
2023-02-15T17:30:39.577Z,84.93
2023-02-15T17:33:21.665Z,94.20
2023-02-15T17:36:16.897Z,98.78
2023-02-15T17:39:57.080Z,98.88
2023-02-15T17:42:54.059Z,95.28
2023-02-15T17:45:22.397Z,92.15
2023-02-15T17:47:51.369Z,76.80
2023-02-15T17:50:22.554Z,76.28
2023-02-15T17:52:51.176Z,74.80
2023-02-15T17:55:38.391Z,76.10
2023-02-15T17:58:09.255Z,74.78
2023-02-15T18:00:58.175Z,77.18
2023-02-15T18:03:44.786Z,69.78
2023-02-15T18:06:32.463Z,80.75
2023-02-15T18:09:17.750Z,86.68
2023-02-15T18:11:48.703Z,74.50
2023-02-15T18:14:17.900Z,69.40
2023-02-15T18:16:46.211Z,65.05
2023-02-15T18:19:17.518Z,59.13
2023-02-15T18:21:45.846Z,61.85
2023-02-15T18:24:19.422Z,61.35
2023-02-15T18:26:47.308Z,64.50
2023-02-15T18:29:15.336Z,60.55
2023-02-15T18:31:45.824Z,73.20
2023-02-15T18:34:22.884Z,68.82
2023-02-15T18:36:50.874Z,60.78
2023-02-15T18:39:37.925Z,66.55
2023-02-15T18:42:05.842Z,68.32
2023-02-15T18:44:33.631Z,65.90
2023-02-15T18:47:02.646Z,64.57
2023-02-15T18:49:30.406Z,73.93
2023-02-15T18:51:58.172Z,64.15
2023-02-15T18:54:26.329Z,64.10
2023-02-15T18:56:56.521Z,62.70
2023-02-15T18:59:25.540Z,61.25
2023-02-15T19:01:53.995Z,66.55
2023-02-15T19:04:25.438Z,64.88
2023-02-15T19:06:53.637Z,58.65
2023-02-15T19:09:24.081Z,65.03
2023-02-15T19:11:53.122Z,87.93
2023-02-15T19:14:29.041Z,114.32
2023-02-15T19:16:57.519Z,106.32
2023-02-15T19:19:26.825Z,125.35
2023-02-15T19:21:54.752Z,148.40
2023-02-15T19:24:25.218Z,110.38
2023-02-15T19:26:53.333Z,77.82
2023-02-15T19:29:26.280Z,72.93
2023-02-15T19:31:54.286Z,66.47
2023-02-15T19:34:22.420Z,68.53
2023-02-15T19:36:53.584Z,59.38
2023-02-15T19:39:25.827Z,52.28
2023-02-15T19:41:53.809Z,49.17
2023-02-15T19:44:22.105Z,58.10
2023-02-15T19:46:50.091Z,60.05
2023-02-15T19:49:18.152Z,57.53
2023-02-15T19:51:47.525Z,59.70
2023-02-15T19:54:29.165Z,60.10
2023-02-15T19:56:56.838Z,58.53
2023-02-15T19:59:26.885Z,58.90
2023-02-15T20:01:55.863Z,56.33
2023-02-15T20:04:24.219Z,60.60
2023-02-15T20:06:54.052Z,96.90
2023-02-15T20:09:25.498Z,64.68
2023-02-15T20:11:54.167Z,67.23
2023-02-15T20:14:23.229Z,72.68
2023-02-15T20:16:51.481Z,61.97
2023-02-15T20:19:19.274Z,52.47
2023-02-15T20:21:51.710Z,59.72
2023-02-15T20:24:21.652Z,47.97
2023-02-15T20:26:50.901Z,49.97
2023-02-15T20:29:19.716Z,47.08
2023-02-15T20:31:47.776Z,49.03
2023-02-15T20:34:15.619Z,52.08
2023-02-15T20:36:43.790Z,54.33
2023-02-15T20:39:17.369Z,50.47
2023-02-15T20:41:48.135Z,53.33
2023-02-15T20:44:20.473Z,52.53
2023-02-15T20:46:48.455Z,58.97
2023-02-15T20:49:16.230Z,57.25
2023-02-15T20:51:46.676Z,55.78
2023-02-15T20:54:16.427Z,57.28
2023-02-15T20:56:44.438Z,61.55
2023-02-15T20:59:25.828Z,66.68
2023-02-15T21:01:57.890Z,68.45
2023-02-15T21:04:30.120Z,55.58
2023-02-15T21:06:58.459Z,54.88
2023-02-15T21:09:26.196Z,61.42
2023-02-15T21:11:56.423Z,55.13
2023-02-15T21:14:27.426Z,54.10
2023-02-15T21:16:55.208Z,57.90
2023-02-15T21:19:24.691Z,60.20
2023-02-15T21:21:53.978Z,61.92
2023-02-15T21:24:23.960Z,55.38
2023-02-15T21:26:51.939Z,51.85
2023-02-15T21:29:26.860Z,57.85
2023-02-15T21:31:55.232Z,54.55
2023-02-15T21:34:23.050Z,52.05
2023-02-15T21:36:51.625Z,59.30
2023-02-15T21:39:20.929Z,63.13
2023-02-15T21:42:08.059Z,62.50
2023-02-15T21:44:54.615Z,57.97
2023-02-15T21:47:41.038Z,53.88
2023-02-15T21:50:28.453Z,60.72
2023-02-15T21:52:56.975Z,51.83
2023-02-15T21:55:24.895Z,53.73
2023-02-15T21:57:52.721Z,49.58
2023-02-15T22:00:24.337Z,53.75
2023-02-15T22:02:54.290Z,54.40
2023-02-15T22:05:25.849Z,51.30
2023-02-15T22:07:53.552Z,48.10
2023-02-15T22:10:22.776Z,53.30
2023-02-15T22:12:51.155Z,48.38
2023-02-15T22:15:20.333Z,45.50
2023-02-15T22:17:52.793Z,45.72
2023-02-15T22:20:22.062Z,45.30
2023-02-15T22:22:51.176Z,40.57
2023-02-15T22:25:20.918Z,39.22
2023-02-15T22:27:49.777Z,40.92
2023-02-15T22:30:22.541Z,41.85
2023-02-15T22:32:51.920Z,41.83
2023-02-15T22:35:26.118Z,40.80
2023-02-15T22:37:53.912Z,43.80
2023-02-15T22:40:22.406Z,41.35
2023-02-15T22:42:51.895Z,50.70
2023-02-15T22:45:21.089Z,47.47
2023-02-15T22:47:53.144Z,50.83
2023-02-15T22:50:22.652Z,61.43
2023-02-15T22:52:51.109Z,53.42
2023-02-15T22:55:20.239Z,49.07
2023-02-15T22:57:50.293Z,54.50
2023-02-15T23:00:21.874Z,56.20
2023-02-15T23:02:51.001Z,45.57
2023-02-15T23:05:20.097Z,62.17
2023-02-15T23:07:48.650Z,55.93
2023-02-15T23:10:23.598Z,60.13
2023-02-15T23:13:11.576Z,54.78
2023-02-15T23:15:39.551Z,62.30
2023-02-15T23:18:20.017Z,62.03
2023-02-15T23:20:51.022Z,65.50
2023-02-15T23:23:22.054Z,61.78
2023-02-15T23:25:49.740Z,61.93
2023-02-15T23:28:24.443Z,61.67
2023-02-15T23:30:52.501Z,54.33
2023-02-15T23:33:24.349Z,61.03
2023-02-15T23:35:52.424Z,57.53
2023-02-15T23:38:22.296Z,66.23
2023-02-15T23:41:10.642Z,57.60
2023-02-15T23:43:39.743Z,62.13
2023-02-15T23:46:08.628Z,54.07
2023-02-15T23:48:39.596Z,60.03
2023-02-15T23:51:07.464Z,57.80
2023-02-15T23:53:35.165Z,58.53
2023-02-15T23:56:02.948Z,68.13
2023-02-15T23:58:36.169Z,61.50
